sensor_id;sensor_type;location;lat;lon;timestamp;pressure;altitude;pressure_sealevel;temperature;humidity
77855;BME280;67046;50.088;14.336;2023-06-10T00:00:29;97319.89;;;19.40;65.34
77855;BME280;67046;50.088;14.336;2023-06-10T00:01:23;97318.63;;;19.38;65.29
77855;BME280;67046;50.088;14.336;2023-06-10T00:01:56;97319.52;;;19.38;65.31
77855;BME280;67046;50.088;14.336;2023-06-10T00:02:31;97316.85;;;19.38;65.30
77855;BME280;67046;50.088;14.336;2023-06-10T00:03:03;97322.58;;;19.38;65.42
77855;BME280;67046;50.088;14.336;2023-06-10T00:03:36;97322.27;;;19.39;65.36
77855;BME280;67046;50.088;14.336;2023-06-10T00:04:08;97316.27;;;19.38;65.36
77855;BME280;67046;50.088;14.336;2023-06-10T00:04:40;97316.59;;;19.39;65.41
77855;BME280;67046;50.088;14.336;2023-06-10T00:05:13;97317.39;;;19.37;65.35
77855;BME280;67046;50.088;14.336;2023-06-10T00:05:47;97318.06;;;19.36;65.59
77855;BME280;67046;50.088;14.336;2023-06-10T00:06:20;97317.42;;;19.36;65.66
77855;BME280;67046;50.088;14.336;2023-06-10T00:06:55;97318.23;;;19.37;65.71
77855;BME280;67046;50.088;14.336;2023-06-10T00:07:29;97316.41;;;19.36;65.66
77855;BME280;67046;50.088;14.336;2023-06-10T00:08:01;97315.65;;;19.36;65.79
77855;BME280;67046;50.088;14.336;2023-06-10T00:08:38;97317.21;;;19.35;65.73
77855;BME280;67046;50.088;14.336;2023-06-10T00:09:11;97314.54;;;19.35;65.55
77855;BME280;67046;50.088;14.336;2023-06-10T00:09:45;97315.46;;;19.34;65.54
77855;BME280;67046;50.088;14.336;2023-06-10T00:10:17;97314.34;;;19.34;65.53
77855;BME280;67046;50.088;14.336;2023-06-10T00:10:49;97314.77;;;19.34;65.50
77855;BME280;67046;50.088;14.336;2023-06-10T00:11:21;97312.17;;;19.33;65.45
77855;BME280;67046;50.088;14.336;2023-06-10T00:11:53;97313.38;;;19.31;65.47
77855;BME280;67046;50.088;14.336;2023-06-10T00:12:25;97312.61;;;19.29;65.50
77855;BME280;67046;50.088;14.336;2023-06-10T00:12:58;97312.20;;;19.29;65.56
77855;BME280;67046;50.088;14.336;2023-06-10T00:13:29;97314.59;;;19.29;65.55
77855;BME280;67046;50.088;14.336;2023-06-10T00:14:02;97313.20;;;19.29;65.79
77855;BME280;67046;50.088;14.336;2023-06-10T00:14:37;97313.05;;;19.29;65.83
77855;BME280;67046;50.088;14.336;2023-06-10T00:15:10;97316.39;;;19.29;65.75
77855;BME280;67046;50.088;14.336;2023-06-10T00:15:42;97314.65;;;19.28;65.79
77855;BME280;67046;50.088;14.336;2023-06-10T00:16:14;97315.08;;;19.27;65.84
77855;BME280;67046;50.088;14.336;2023-06-10T00:16:46;97316.98;;;19.26;65.90
77855;BME280;67046;50.088;14.336;2023-06-10T00:17:18;97316.15;;;19.24;65.81
77855;BME280;67046;50.088;14.336;2023-06-10T00:17:50;97316.86;;;19.23;65.86
77855;BME280;67046;50.088;14.336;2023-06-10T00:18:24;97317.58;;;19.23;65.90
77855;BME280;67046;50.088;14.336;2023-06-10T00:19:03;97317.70;;;19.22;66.10
77855;BME280;67046;50.088;14.336;2023-06-10T00:19:38;97315.77;;;19.21;65.98
77855;BME280;67046;50.088;14.336;2023-06-10T00:20:13;97314.33;;;19.19;65.99
77855;BME280;67046;50.088;14.336;2023-06-10T00:20:45;97315.63;;;19.18;66.09
77855;BME280;67046;50.088;14.336;2023-06-10T00:21:17;97313.80;;;19.18;66.14
77855;BME280;67046;50.088;14.336;2023-06-10T00:21:51;97319.31;;;19.16;66.10
77855;BME280;67046;50.088;14.336;2023-06-10T00:22:23;97319.16;;;19.16;66.20
77855;BME280;67046;50.088;14.336;2023-06-10T00:23:01;97313.08;;;19.15;66.18
77855;BME280;67046;50.088;14.336;2023-06-10T00:23:33;97316.88;;;19.14;66.20
77855;BME280;67046;50.088;14.336;2023-06-10T00:24:10;97317.52;;;19.12;66.25
77855;BME280;67046;50.088;14.336;2023-06-10T00:24:43;97314.97;;;19.10;66.41
77855;BME280;67046;50.088;14.336;2023-06-10T00:25:15;97315.09;;;19.10;66.33
77855;BME280;67046;50.088;14.336;2023-06-10T00:25:47;97314.87;;;19.10;66.23
77855;BME280;67046;50.088;14.336;2023-06-10T00:26:20;97313.91;;;19.09;66.23
77855;BME280;67046;50.088;14.336;2023-06-10T00:26:52;97312.59;;;19.09;66.39
77855;BME280;67046;50.088;14.336;2023-06-10T00:27:24;97320.86;;;19.08;66.24
77855;BME280;67046;50.088;14.336;2023-06-10T00:27:57;97319.33;;;19.06;66.34
77855;BME280;67046;50.088;14.336;2023-06-10T00:28:28;97316.42;;;19.05;66.29
77855;BME280;67046;50.088;14.336;2023-06-10T00:29:01;97315.58;;;19.03;66.18
77855;BME280;67046;50.088;14.336;2023-06-10T00:29:34;97316.12;;;19.01;66.25
77855;BME280;67046;50.088;14.336;2023-06-10T00:30:07;97316.48;;;18.99;66.24
77855;BME280;67046;50.088;14.336;2023-06-10T00:30:40;97320.97;;;18.99;66.46
77855;BME280;67046;50.088;14.336;2023-06-10T00:31:11;97320.02;;;18.98;66.46
77855;BME280;67046;50.088;14.336;2023-06-10T00:31:45;97319.19;;;18.97;66.46
77855;BME280;67046;50.088;14.336;2023-06-10T00:32:17;97322.58;;;18.96;66.61
77855;BME280;67046;50.088;14.336;2023-06-10T00:32:49;97320.04;;;18.94;66.55
77855;BME280;67046;50.088;14.336;2023-06-10T00:33:21;97323.43;;;18.93;66.74
77855;BME280;67046;50.088;14.336;2023-06-10T00:33:53;97322.70;;;18.92;66.87
77855;BME280;67046;50.088;14.336;2023-06-10T00:34:25;97323.33;;;18.91;66.68
77855;BME280;67046;50.088;14.336;2023-06-10T00:34:57;97324.23;;;18.89;66.67
77855;BME280;67046;50.088;14.336;2023-06-10T00:35:29;97322.61;;;18.89;66.58
77855;BME280;67046;50.088;14.336;2023-06-10T00:36:02;97325.15;;;18.87;66.70
77855;BME280;67046;50.088;14.336;2023-06-10T00:36:33;97324.23;;;18.88;66.81
77855;BME280;67046;50.088;14.336;2023-06-10T00:37:07;97323.80;;;18.85;66.97
77855;BME280;67046;50.088;14.336;2023-06-10T00:37:39;97322.91;;;18.84;67.20
77855;BME280;67046;50.088;14.336;2023-06-10T00:38:13;97323.85;;;18.82;67.14
77855;BME280;67046;50.088;14.336;2023-06-10T00:38:46;97325.08;;;18.81;67.30
77855;BME280;67046;50.088;14.336;2023-06-10T00:39:18;97319.87;;;18.80;67.29
77855;BME280;67046;50.088;14.336;2023-06-10T00:39:50;97323.85;;;18.80;67.03
77855;BME280;67046;50.088;14.336;2023-06-10T00:40:22;97324.23;;;18.78;67.14
77855;BME280;67046;50.088;14.336;2023-06-10T00:40:54;97326.38;;;18.79;67.06
77855;BME280;67046;50.088;14.336;2023-06-10T00:41:26;97323.45;;;18.78;67.02
77855;BME280;67046;50.088;14.336;2023-06-10T00:41:58;97322.29;;;18.78;67.01
77855;BME280;67046;50.088;14.336;2023-06-10T00:42:30;97323.55;;;18.75;67.07
77855;BME280;67046;50.088;14.336;2023-06-10T00:43:03;97321.48;;;18.73;67.31
77855;BME280;67046;50.088;14.336;2023-06-10T00:43:35;97320.60;;;18.72;67.30
77855;BME280;67046;50.088;14.336;2023-06-10T00:44:07;97323.46;;;18.72;67.25
77855;BME280;67046;50.088;14.336;2023-06-10T00:44:39;97322.16;;;18.69;67.46
77855;BME280;67046;50.088;14.336;2023-06-10T00:45:11;97323.95;;;18.67;67.37
77855;BME280;67046;50.088;14.336;2023-06-10T00:45:43;97324.08;;;18.67;67.38
77855;BME280;67046;50.088;14.336;2023-06-10T00:46:15;97322.00;;;18.65;67.37
77855;BME280;67046;50.088;14.336;2023-06-10T00:46:48;97321.63;;;18.65;67.53
77855;BME280;67046;50.088;14.336;2023-06-10T00:47:23;97322.54;;;18.65;67.59
77855;BME280;67046;50.088;14.336;2023-06-10T00:47:55;97320.52;;;18.65;67.67
77855;BME280;67046;50.088;14.336;2023-06-10T00:48:27;97320.70;;;18.64;67.78
77855;BME280;67046;50.088;14.336;2023-06-10T00:49:00;97324.22;;;18.61;67.98
77855;BME280;67046;50.088;14.336;2023-06-10T00:49:33;97322.38;;;18.60;67.72
77855;BME280;67046;50.088;14.336;2023-06-10T00:50:05;97320.13;;;18.60;67.96
77855;BME280;67046;50.088;14.336;2023-06-10T00:50:38;97319.39;;;18.59;68.08
77855;BME280;67046;50.088;14.336;2023-06-10T00:51:11;97317.91;;;18.58;67.92
77855;BME280;67046;50.088;14.336;2023-06-10T00:51:43;97317.74;;;18.58;68.09
77855;BME280;67046;50.088;14.336;2023-06-10T00:52:16;97317.90;;;18.58;68.13
77855;BME280;67046;50.088;14.336;2023-06-10T00:52:48;97322.35;;;18.58;68.04
77855;BME280;67046;50.088;14.336;2023-06-10T00:53:22;97319.25;;;18.58;67.85
77855;BME280;67046;50.088;14.336;2023-06-10T00:53:55;97320.65;;;18.58;68.06
77855;BME280;67046;50.088;14.336;2023-06-10T00:54:27;97320.59;;;18.58;68.12
77855;BME280;67046;50.088;14.336;2023-06-10T00:54:59;97321.91;;;18.56;68.38
77855;BME280;67046;50.088;14.336;2023-06-10T00:55:32;97319.37;;;18.54;68.23
77855;BME280;67046;50.088;14.336;2023-06-10T00:56:04;97326.94;;;18.52;68.32
77855;BME280;67046;50.088;14.336;2023-06-10T00:56:37;97323.69;;;18.52;68.16
77855;BME280;67046;50.088;14.336;2023-06-10T00:57:09;97325.29;;;18.52;68.22
77855;BME280;67046;50.088;14.336;2023-06-10T00:57:41;97325.45;;;18.52;68.21
77855;BME280;67046;50.088;14.336;2023-06-10T00:58:16;97325.39;;;18.52;68.11
77855;BME280;67046;50.088;14.336;2023-06-10T00:58:48;97323.73;;;18.53;68.27
77855;BME280;67046;50.088;14.336;2023-06-10T00:59:20;97325.16;;;18.53;68.33
77855;BME280;67046;50.088;14.336;2023-06-10T00:59:54;97325.92;;;18.52;68.48
77855;BME280;67046;50.088;14.336;2023-06-10T01:00:26;97325.16;;;18.53;68.51
77855;BME280;67046;50.088;14.336;2023-06-10T01:00:58;97323.84;;;18.52;68.45
77855;BME280;67046;50.088;14.336;2023-06-10T01:01:30;97325.76;;;18.49;68.54
77855;BME280;67046;50.088;14.336;2023-06-10T01:02:03;97322.83;;;18.49;68.28
77855;BME280;67046;50.088;14.336;2023-06-10T01:02:35;97323.89;;;18.49;68.31
77855;BME280;67046;50.088;14.336;2023-06-10T01:03:08;97324.79;;;18.49;68.24
77855;BME280;67046;50.088;14.336;2023-06-10T01:03:40;97323.86;;;18.50;68.13
77855;BME280;67046;50.088;14.336;2023-06-10T01:04:13;97323.45;;;18.49;68.30
77855;BME280;67046;50.088;14.336;2023-06-10T01:04:45;97323.92;;;18.49;68.20
77855;BME280;67046;50.088;14.336;2023-06-10T01:05:20;97326.33;;;18.50;68.24
77855;BME280;67046;50.088;14.336;2023-06-10T01:06:03;97325.80;;;18.50;68.01
77855;BME280;67046;50.088;14.336;2023-06-10T01:06:50;97326.15;;;18.51;68.33
77855;BME280;67046;50.088;14.336;2023-06-10T01:07:37;97323.63;;;18.47;68.22
77855;BME280;67046;50.088;14.336;2023-06-10T01:08:22;97324.37;;;18.47;68.22
77855;BME280;67046;50.088;14.336;2023-06-10T01:09:29;97325.00;;;18.47;68.23
77855;BME280;67046;50.088;14.336;2023-06-10T01:10:55;97327.17;;;18.45;68.38
77855;BME280;67046;50.088;14.336;2023-06-10T01:11:35;97326.54;;;18.45;68.19
77855;BME280;67046;50.088;14.336;2023-06-10T01:12:14;97327.66;;;18.45;68.19
77855;BME280;67046;50.088;14.336;2023-06-10T01:13:02;97331.30;;;18.45;68.26
77855;BME280;67046;50.088;14.336;2023-06-10T01:13:36;97329.21;;;18.45;68.38
77855;BME280;67046;50.088;14.336;2023-06-10T01:14:10;97330.13;;;18.45;68.35
77855;BME280;67046;50.088;14.336;2023-06-10T01:14:44;97331.14;;;18.45;68.36
77855;BME280;67046;50.088;14.336;2023-06-10T01:15:17;97332.41;;;18.46;68.30
77855;BME280;67046;50.088;14.336;2023-06-10T01:15:50;97331.69;;;18.47;68.39
77855;BME280;67046;50.088;14.336;2023-06-10T01:16:23;97331.43;;;18.47;68.33
77855;BME280;67046;50.088;14.336;2023-06-10T01:16:55;97331.65;;;18.47;68.27
77855;BME280;67046;50.088;14.336;2023-06-10T01:17:28;97333.63;;;18.49;68.28
77855;BME280;67046;50.088;14.336;2023-06-10T01:18:06;97335.80;;;18.50;68.30
77855;BME280;67046;50.088;14.336;2023-06-10T01:18:41;97333.98;;;18.50;68.25
77855;BME280;67046;50.088;14.336;2023-06-10T01:19:14;97335.15;;;18.50;68.21
77855;BME280;67046;50.088;14.336;2023-06-10T01:19:56;97336.34;;;18.50;68.29
77855;BME280;67046;50.088;14.336;2023-06-10T01:20:29;97337.20;;;18.50;68.39
77855;BME280;67046;50.088;14.336;2023-06-10T01:21:03;97339.34;;;18.50;68.26
77855;BME280;67046;50.088;14.336;2023-06-10T01:21:37;97336.81;;;18.50;68.22
77855;BME280;67046;50.088;14.336;2023-06-10T01:22:10;97336.75;;;18.50;68.33
77855;BME280;67046;50.088;14.336;2023-06-10T01:22:47;97338.52;;;18.50;68.49
77855;BME280;67046;50.088;14.336;2023-06-10T01:23:19;97341.09;;;18.50;68.28
77855;BME280;67046;50.088;14.336;2023-06-10T01:23:53;97342.54;;;18.50;68.22
77855;BME280;67046;50.088;14.336;2023-06-10T01:24:28;97338.79;;;18.50;68.30
77855;BME280;67046;50.088;14.336;2023-06-10T01:25:00;97341.10;;;18.50;68.15
77855;BME280;67046;50.088;14.336;2023-06-10T01:25:40;97343.38;;;18.51;68.09
77855;BME280;67046;50.088;14.336;2023-06-10T01:26:16;97342.90;;;18.51;68.38
77855;BME280;67046;50.088;14.336;2023-06-10T01:26:49;97341.73;;;18.51;68.46
77855;BME280;67046;50.088;14.336;2023-06-10T01:27:26;97342.48;;;18.50;68.50
77855;BME280;67046;50.088;14.336;2023-06-10T01:28:11;97346.02;;;18.51;68.45
77855;BME280;67046;50.088;14.336;2023-06-10T01:28:51;97343.36;;;18.49;68.58
77855;BME280;67046;50.088;14.336;2023-06-10T01:29:48;97344.80;;;18.49;68.57
77855;BME280;67046;50.088;14.336;2023-06-10T01:30:27;97340.91;;;18.47;68.87
77855;BME280;67046;50.088;14.336;2023-06-10T01:32:17;97345.59;;;18.45;68.66
77855;BME280;67046;50.088;14.336;2023-06-10T01:32:51;97341.70;;;18.44;68.59
77855;BME280;67046;50.088;14.336;2023-06-10T01:33:28;97345.08;;;18.44;68.52
77855;BME280;67046;50.088;14.336;2023-06-10T01:34:01;97345.92;;;18.44;68.42
77855;BME280;67046;50.088;14.336;2023-06-10T01:34:35;97344.27;;;18.45;68.31
77855;BME280;67046;50.088;14.336;2023-06-10T01:35:09;97347.24;;;18.45;68.38
77855;BME280;67046;50.088;14.336;2023-06-10T01:35:43;97346.92;;;18.46;68.36
77855;BME280;67046;50.088;14.336;2023-06-10T01:36:17;97347.92;;;18.46;68.74
77855;BME280;67046;50.088;14.336;2023-06-10T01:36:50;97345.48;;;18.45;68.85
77855;BME280;67046;50.088;14.336;2023-06-10T01:37:24;97344.98;;;18.44;68.84
77855;BME280;67046;50.088;14.336;2023-06-10T01:37:58;97345.58;;;18.43;69.01
77855;BME280;67046;50.088;14.336;2023-06-10T01:38:36;97346.71;;;18.41;68.95
77855;BME280;67046;50.088;14.336;2023-06-10T01:39:10;97347.15;;;18.41;68.99
77855;BME280;67046;50.088;14.336;2023-06-10T01:39:45;97345.79;;;18.40;69.00
77855;BME280;67046;50.088;14.336;2023-06-10T01:40:18;97345.90;;;18.39;69.05
77855;BME280;67046;50.088;14.336;2023-06-10T01:40:50;97345.90;;;18.39;68.83
77855;BME280;67046;50.088;14.336;2023-06-10T01:41:24;97343.42;;;18.37;68.80
77855;BME280;67046;50.088;14.336;2023-06-10T01:41:57;97348.62;;;18.37;68.82
77855;BME280;67046;50.088;14.336;2023-06-10T01:42:30;97344.23;;;18.37;69.00
77855;BME280;67046;50.088;14.336;2023-06-10T01:43:02;97345.77;;;18.38;69.26
77855;BME280;67046;50.088;14.336;2023-06-10T01:43:34;97346.10;;;18.36;69.14
77855;BME280;67046;50.088;14.336;2023-06-10T01:44:06;97342.98;;;18.35;69.01
77855;BME280;67046;50.088;14.336;2023-06-10T01:44:39;97346.14;;;18.35;69.38
77855;BME280;67046;50.088;14.336;2023-06-10T01:45:11;97347.63;;;18.35;69.44
77855;BME280;67046;50.088;14.336;2023-06-10T01:45:43;97346.95;;;18.34;69.38
77855;BME280;67046;50.088;14.336;2023-06-10T01:46:16;97348.02;;;18.33;69.55
77855;BME280;67046;50.088;14.336;2023-06-10T01:46:51;97350.05;;;18.33;69.62
77855;BME280;67046;50.088;14.336;2023-06-10T01:47:23;97347.95;;;18.32;69.38
77855;BME280;67046;50.088;14.336;2023-06-10T01:47:55;97344.95;;;18.32;69.30
77855;BME280;67046;50.088;14.336;2023-06-10T01:48:28;97348.16;;;18.32;69.30
77855;BME280;67046;50.088;14.336;2023-06-10T01:49:00;97349.93;;;18.32;69.23
77855;BME280;67046;50.088;14.336;2023-06-10T01:49:32;97350.05;;;18.33;69.12
77855;BME280;67046;50.088;14.336;2023-06-10T01:50:04;97348.61;;;18.33;69.34
77855;BME280;67046;50.088;14.336;2023-06-10T01:50:36;97349.67;;;18.33;69.52
77855;BME280;67046;50.088;14.336;2023-06-10T01:51:09;97350.20;;;18.33;69.50
77855;BME280;67046;50.088;14.336;2023-06-10T01:51:41;97349.58;;;18.33;69.45
77855;BME280;67046;50.088;14.336;2023-06-10T01:52:13;97348.04;;;18.32;69.63
77855;BME280;67046;50.088;14.336;2023-06-10T01:52:45;97350.41;;;18.31;69.73
77855;BME280;67046;50.088;14.336;2023-06-10T01:53:17;97354.33;;;18.31;69.50
77855;BME280;67046;50.088;14.336;2023-06-10T01:53:49;97351.39;;;18.30;69.61
77855;BME280;67046;50.088;14.336;2023-06-10T01:54:21;97353.97;;;18.30;69.58
77855;BME280;67046;50.088;14.336;2023-06-10T01:54:53;97353.89;;;18.27;69.92
77855;BME280;67046;50.088;14.336;2023-06-10T01:55:28;97355.58;;;18.26;69.74
77855;BME280;67046;50.088;14.336;2023-06-10T01:56:00;97356.77;;;18.25;69.74
77855;BME280;67046;50.088;14.336;2023-06-10T01:56:32;97354.73;;;18.25;69.72
77855;BME280;67046;50.088;14.336;2023-06-10T01:57:05;97357.36;;;18.25;69.90
77855;BME280;67046;50.088;14.336;2023-06-10T01:57:38;97357.56;;;18.25;69.91
77855;BME280;67046;50.088;14.336;2023-06-10T01:58:10;97358.64;;;18.25;69.95
77855;BME280;67046;50.088;14.336;2023-06-10T01:58:42;97357.45;;;18.25;69.96
77855;BME280;67046;50.088;14.336;2023-06-10T01:59:14;97356.98;;;18.26;69.97
77855;BME280;67046;50.088;14.336;2023-06-10T01:59:47;97355.52;;;18.26;70.18
77855;BME280;67046;50.088;14.336;2023-06-10T02:00:19;97358.77;;;18.27;70.15
77855;BME280;67046;50.088;14.336;2023-06-10T02:00:52;97358.39;;;18.27;70.06
77855;BME280;67046;50.088;14.336;2023-06-10T02:01:27;97361.69;;;18.27;70.18
77855;BME280;67046;50.088;14.336;2023-06-10T02:01:59;97362.61;;;18.27;70.10
77855;BME280;67046;50.088;14.336;2023-06-10T02:02:31;97361.20;;;18.26;70.29
77855;BME280;67046;50.088;14.336;2023-06-10T02:03:03;97363.02;;;18.26;70.22
77855;BME280;67046;50.088;14.336;2023-06-10T02:03:35;97362.93;;;18.25;70.29
77855;BME280;67046;50.088;14.336;2023-06-10T02:04:07;97363.61;;;18.25;70.15
77855;BME280;67046;50.088;14.336;2023-06-10T02:04:39;97364.52;;;18.25;70.09
77855;BME280;67046;50.088;14.336;2023-06-10T02:05:11;97363.14;;;18.25;70.14
77855;BME280;67046;50.088;14.336;2023-06-10T02:05:43;97365.64;;;18.26;70.03
77855;BME280;67046;50.088;14.336;2023-06-10T02:06:15;97363.88;;;18.25;70.27
77855;BME280;67046;50.088;14.336;2023-06-10T02:06:47;97367.08;;;18.26;70.08
77855;BME280;67046;50.088;14.336;2023-06-10T02:07:20;97366.16;;;18.26;70.15
77855;BME280;67046;50.088;14.336;2023-06-10T02:07:52;97364.59;;;18.27;70.20
77855;BME280;67046;50.088;14.336;2023-06-10T02:08:24;97369.72;;;18.27;70.11
77855;BME280;67046;50.088;14.336;2023-06-10T02:08:56;97367.89;;;18.26;70.14
77855;BME280;67046;50.088;14.336;2023-06-10T02:09:28;97367.67;;;18.25;70.33
77855;BME280;67046;50.088;14.336;2023-06-10T02:10:00;97369.28;;;18.25;70.49
77855;BME280;67046;50.088;14.336;2023-06-10T02:10:32;97372.55;;;18.25;70.45
77855;BME280;67046;50.088;14.336;2023-06-10T02:11:04;97369.48;;;18.24;70.53
77855;BME280;67046;50.088;14.336;2023-06-10T02:11:36;97367.13;;;18.22;70.70
77855;BME280;67046;50.088;14.336;2023-06-10T02:12:09;97369.33;;;18.22;70.74
77855;BME280;67046;50.088;14.336;2023-06-10T02:12:41;97370.80;;;18.21;70.87
77855;BME280;67046;50.088;14.336;2023-06-10T02:13:13;97370.70;;;18.21;70.70
77855;BME280;67046;50.088;14.336;2023-06-10T02:13:46;97374.55;;;18.19;70.70
77855;BME280;67046;50.088;14.336;2023-06-10T02:14:18;97374.05;;;18.17;70.72
77855;BME280;67046;50.088;14.336;2023-06-10T02:14:50;97374.08;;;18.16;70.79
77855;BME280;67046;50.088;14.336;2023-06-10T02:15:22;97378.32;;;18.15;70.79
77855;BME280;67046;50.088;14.336;2023-06-10T02:15:54;97376.34;;;18.13;70.93
77855;BME280;67046;50.088;14.336;2023-06-10T02:16:26;97374.95;;;18.11;70.91
77855;BME280;67046;50.088;14.336;2023-06-10T02:16:58;97374.97;;;18.10;70.97
77855;BME280;67046;50.088;14.336;2023-06-10T02:17:30;97375.46;;;18.09;70.83
77855;BME280;67046;50.088;14.336;2023-06-10T02:18:02;97374.81;;;18.06;70.85
77855;BME280;67046;50.088;14.336;2023-06-10T02:18:35;97373.13;;;18.04;70.74
77855;BME280;67046;50.088;14.336;2023-06-10T02:19:07;97374.93;;;18.05;70.59
77855;BME280;67046;50.088;14.336;2023-06-10T02:19:39;97374.55;;;18.05;70.91
77855;BME280;67046;50.088;14.336;2023-06-10T02:20:14;97372.70;;;18.05;70.72
77855;BME280;67046;50.088;14.336;2023-06-10T02:20:46;97370.45;;;18.04;70.79
77855;BME280;67046;50.088;14.336;2023-06-10T02:21:18;97370.61;;;18.04;70.82
77855;BME280;67046;50.088;14.336;2023-06-10T02:21:50;97368.45;;;18.02;70.73
77855;BME280;67046;50.088;14.336;2023-06-10T02:22:23;97367.23;;;18.01;70.70
77855;BME280;67046;50.088;14.336;2023-06-10T02:22:55;97366.39;;;17.99;70.86
77855;BME280;67046;50.088;14.336;2023-06-10T02:23:27;97372.10;;;18.00;70.81
77855;BME280;67046;50.088;14.336;2023-06-10T02:23:59;97369.16;;;18.00;70.78
77855;BME280;67046;50.088;14.336;2023-06-10T02:24:31;97370.46;;;18.00;70.83
77855;BME280;67046;50.088;14.336;2023-06-10T02:25:04;97369.85;;;17.97;71.10
77855;BME280;67046;50.088;14.336;2023-06-10T02:25:37;97369.17;;;17.96;70.94
77855;BME280;67046;50.088;14.336;2023-06-10T02:26:09;97371.16;;;17.96;70.93
77855;BME280;67046;50.088;14.336;2023-06-10T02:26:41;97371.84;;;17.96;70.81
77855;BME280;67046;50.088;14.336;2023-06-10T02:27:13;97371.83;;;17.97;70.75
77855;BME280;67046;50.088;14.336;2023-06-10T02:27:45;97371.23;;;17.97;71.03
77855;BME280;67046;50.088;14.336;2023-06-10T02:28:17;97371.10;;;17.96;71.23
77855;BME280;67046;50.088;14.336;2023-06-10T02:28:49;97373.14;;;17.96;71.20
77855;BME280;67046;50.088;14.336;2023-06-10T02:29:21;97373.02;;;17.96;71.02
77855;BME280;67046;50.088;14.336;2023-06-10T02:29:53;97375.73;;;17.97;70.94
77855;BME280;67046;50.088;14.336;2023-06-10T02:30:25;97372.89;;;17.98;70.87
77855;BME280;67046;50.088;14.336;2023-06-10T02:30:57;97371.71;;;17.99;71.02
77855;BME280;67046;50.088;14.336;2023-06-10T02:31:30;97370.05;;;17.98;71.05
77855;BME280;67046;50.088;14.336;2023-06-10T02:32:03;97371.23;;;17.97;71.08
77855;BME280;67046;50.088;14.336;2023-06-10T02:32:36;97373.91;;;17.98;71.12
77855;BME280;67046;50.088;14.336;2023-06-10T02:33:08;97372.25;;;17.99;71.08
77855;BME280;67046;50.088;14.336;2023-06-10T02:33:44;97370.90;;;17.99;70.88
77855;BME280;67046;50.088;14.336;2023-06-10T02:34:16;97375.69;;;18.00;71.10
77855;BME280;67046;50.088;14.336;2023-06-10T02:34:48;97372.16;;;18.01;71.06
77855;BME280;67046;50.088;14.336;2023-06-10T02:35:23;97374.02;;;18.01;70.96
77855;BME280;67046;50.088;14.336;2023-06-10T02:35:56;97374.42;;;18.02;71.01
77855;BME280;67046;50.088;14.336;2023-06-10T02:36:28;97376.73;;;18.02;70.87
77855;BME280;67046;50.088;14.336;2023-06-10T02:37:00;97379.13;;;18.00;70.83
77855;BME280;67046;50.088;14.336;2023-06-10T02:37:32;97379.23;;;17.99;70.82
77855;BME280;67046;50.088;14.336;2023-06-10T02:38:04;97377.80;;;17.99;70.87
77855;BME280;67046;50.088;14.336;2023-06-10T02:38:37;97379.34;;;18.00;70.68
77855;BME280;67046;50.088;14.336;2023-06-10T02:39:09;97375.00;;;18.00;70.95
77855;BME280;67046;50.088;14.336;2023-06-10T02:39:41;97380.07;;;18.01;70.84
77855;BME280;67046;50.088;14.336;2023-06-10T02:40:13;97379.62;;;17.98;70.71
77855;BME280;67046;50.088;14.336;2023-06-10T02:40:45;97379.30;;;17.98;70.67
77855;BME280;67046;50.088;14.336;2023-06-10T02:41:17;97378.45;;;17.98;70.56
77855;BME280;67046;50.088;14.336;2023-06-10T02:41:49;97377.16;;;17.98;70.72
77855;BME280;67046;50.088;14.336;2023-06-10T02:42:21;97378.81;;;17.99;70.90
77855;BME280;67046;50.088;14.336;2023-06-10T02:42:53;97380.48;;;17.98;70.86
77855;BME280;67046;50.088;14.336;2023-06-10T02:43:25;97378.62;;;17.97;70.86
77855;BME280;67046;50.088;14.336;2023-06-10T02:43:57;97378.68;;;17.96;70.99
77855;BME280;67046;50.088;14.336;2023-06-10T02:44:29;97380.05;;;17.95;70.87
77855;BME280;67046;50.088;14.336;2023-06-10T02:45:02;97379.10;;;17.93;71.13
77855;BME280;67046;50.088;14.336;2023-06-10T02:45:34;97381.33;;;17.91;71.11
77855;BME280;67046;50.088;14.336;2023-06-10T02:46:06;97379.58;;;17.89;71.13
77855;BME280;67046;50.088;14.336;2023-06-10T02:46:39;97382.77;;;17.87;70.96
77855;BME280;67046;50.088;14.336;2023-06-10T02:47:11;97381.06;;;17.87;70.87
77855;BME280;67046;50.088;14.336;2023-06-10T02:47:43;97380.48;;;17.86;71.07
77855;BME280;67046;50.088;14.336;2023-06-10T02:48:15;97378.45;;;17.86;71.02
77855;BME280;67046;50.088;14.336;2023-06-10T02:48:47;97380.16;;;17.86;71.10
77855;BME280;67046;50.088;14.336;2023-06-10T02:49:21;97377.78;;;17.84;71.22
77855;BME280;67046;50.088;14.336;2023-06-10T02:49:53;97380.46;;;17.83;71.08
77855;BME280;67046;50.088;14.336;2023-06-10T02:50:25;97377.67;;;17.84;71.01
77855;BME280;67046;50.088;14.336;2023-06-10T02:50:57;97378.54;;;17.84;70.86
77855;BME280;67046;50.088;14.336;2023-06-10T02:51:29;97380.43;;;17.85;70.98
77855;BME280;67046;50.088;14.336;2023-06-10T02:52:01;97381.60;;;17.86;71.21
77855;BME280;67046;50.088;14.336;2023-06-10T02:52:33;97381.02;;;17.86;71.28
77855;BME280;67046;50.088;14.336;2023-06-10T02:53:05;97377.27;;;17.86;71.29
77855;BME280;67046;50.088;14.336;2023-06-10T02:53:37;97375.84;;;17.85;71.27
77855;BME280;67046;50.088;14.336;2023-06-10T02:54:09;97377.04;;;17.85;71.29
77855;BME280;67046;50.088;14.336;2023-06-10T02:54:41;97374.68;;;17.84;71.30
77855;BME280;67046;50.088;14.336;2023-06-10T02:55:13;97375.06;;;17.84;71.32
77855;BME280;67046;50.088;14.336;2023-06-10T02:55:45;97374.48;;;17.82;71.38
77855;BME280;67046;50.088;14.336;2023-06-10T02:56:18;97376.86;;;17.81;71.16
77855;BME280;67046;50.088;14.336;2023-06-10T02:56:51;97379.07;;;17.79;71.22